Terminal Aerodrome Forecast
Issued by NWS

Home | Current Version | Previous Version | Text Only | Print | Product List | Glossary On
Versions: 1 2 3 4 5 6 7 8 9 10 11 12 13 14 15 16 17 18 19 20 21 22 23 24 25 26 27 28 29 30 31
000
FTUS45 KBOU 201732
TAFBJC
TAF
KBJC 201732Z 2018/2118 08006KT P6SM FEW110 SCT200
     FM202200 20010KT P6SM VCSH SCT120 BKN200
      TEMPO 2022/2102 VRB25G35KT BKN120
     FM210200 25008KT P6SM FEW140 BKN200
     FM211300 VRB03KT P6SM SCT140=

USA.gov is the U.S. government's official web portal to all federal, state and local government web resources and services.